Time;durP1;ratioP1;P1;durP2;ratioP2;P2;SDS_P1;SDS_P2;PMS_P1;PMS_P2;Temp;Humidity;BMP_temperature;BMP_pressure;BME280_temperature;BME280_humidity;BME280_pressure;Samples;Min_cycle;Max_cycle;Signal;HPM_P1;HPM_P2
2022/08/12 00:44:39;;;;;;;3.35;0.75;;;20.20;75.70;;;;;;5087929;28;20020;-91
2022/08/12 00:47:05;;;;;;;4.22;0.98;;;20.20;76.20;;;;;;5073002;28;20382;-92
2022/08/12 00:49:30;;;;;;;2.83;0.70;;;20.20;76.40;;;;;;5074656;28;20148;-92
2022/08/12 00:52:05;;;;;;;2.08;0.75;;;20.10;76.70;;;;;;5074179;28;20082;-93
2022/08/12 00:54:41;;;;;;;3.83;0.77;;;20.10;76.90;;;;;;5074567;28;20025;-93
2022/08/12 00:57:16;;;;;;;1.70;0.73;;;20.10;77.20;;;;;;5076352;28;20028;-93
2022/08/12 01:00:00;;;;;;;2.72;0.82;;;20.10;77.60;;;;;;5079788;28;20135;-93
2022/08/12 01:02:29;;;;;;;1.55;0.60;;;20.10;77.80;;;;;;5078658;28;20077;-93
2022/08/12 01:13:15;;;;;;;5.43;0.88;;;20.00;79.00;;;;;;5099581;28;20066;-94
2022/08/12 01:15:42;;;;;;;3.65;0.90;;;20.00;79.20;;;;;;5096634;28;20220;-93
2022/08/12 01:18:09;;;;;;;3.45;0.80;;;20.00;79.70;;;;;;5084375;28;20127;-92
2022/08/12 01:20:51;;;;;;;2.22;0.70;;;20.00;80.00;;;;;;5079119;28;20028;-91
2022/08/12 01:23:39;;;;;;;2.53;0.90;;;20.00;80.20;;;;;;5081589;28;20042;-92
2022/08/12 01:26:08;;;;;;;2.95;1.10;;;20.00;80.50;;;;;;5072432;28;20404;-92
2022/08/12 01:28:34;;;;;;;3.25;0.90;;;20.00;80.90;;;;;;5075700;28;20035;-92
2022/08/12 01:31:04;;;;;;;2.22;0.70;;;19.90;81.00;;;;;;5080663;28;20085;-92
2022/08/12 01:33:39;;;;;;;2.33;1.05;;;19.90;81.30;;;;;;5095288;28;20017;-92
2022/08/12 01:36:09;;;;;;;3.75;0.77;;;19.90;81.60;;;;;;5075554;28;20028;-91
2022/08/12 01:38:36;;;;;;;2.95;0.82;;;20.00;81.90;;;;;;5077294;28;20094;-92
2022/08/12 01:41:03;;;;;;;2.08;1.00;;;19.90;82.20;;;;;;5073894;28;20086;-91
2022/08/12 01:43:31;;;;;;;2.42;0.75;;;19.90;82.50;;;;;;5077252;28;20468;-92
2022/08/12 01:46:46;;;;;;;3.47;0.90;;;19.90;82.90;;;;;;5068173;28;20445;-91
2022/08/12 01:49:32;;;;;;;2.50;0.95;;;19.90;83.10;;;;;;5067084;28;20040;-92
2022/08/12 01:52:05;;;;;;;2.47;1.00;;;19.80;83.40;;;;;;5074402;28;20044;-91
2022/08/12 01:54:38;;;;;;;4.35;1.00;;;19.80;83.90;;;;;;5078060;28;20021;-91
2022/08/12 01:57:12;;;;;;;3.58;1.08;;;19.70;84.20;;;;;;5076254;28;20502;-91
2022/08/12 01:59:49;;;;;;;2.90;1.10;;;19.70;84.70;;;;;;5080435;28;20033;-92
2022/08/12 02:02:47;;;;;;;2.45;0.90;;;19.70;85.00;;;;;;5077470;28;20504;-92
2022/08/12 02:12:01;;;;;;;4.57;1.45;;;19.60;86.50;;;;;;5065403;28;20571;-92
2022/08/12 02:14:35;;;;;;;5.93;1.65;;;19.50;86.80;;;;;;5057111;28;20074;-92
2022/08/12 02:17:25;;;;;;;2.53;1.20;;;19.50;87.30;;;;;;5099955;28;20055;-92
2022/08/12 02:20:08;;;;;;;4.82;1.75;;;19.50;87.70;;;;;;5066516;28;20063;-92
2022/08/12 02:22:43;;;;;;;2.85;1.55;;;19.40;88.20;;;;;;5068510;28;20480;-92
2022/08/12 02:25:29;;;;;;;2.92;1.33;;;19.40;88.60;;;;;;5071930;28;20036;-92
2022/08/12 02:27:55;;;;;;;3.67;1.40;;;19.40;89.00;;;;;;5071508;28;20025;-92
2022/08/12 02:30:30;;;;;;;4.85;1.70;;;19.30;89.40;;;;;;5064422;28;20040;-92
2022/08/12 02:32:58;;;;;;;4.03;1.70;;;19.40;90.00;;;;;;5061640;28;20021;-93
2022/08/12 02:35:29;;;;;;;3.50;1.40;;;19.30;90.20;;;;;;5072013;28;20032;-93
2022/08/12 02:37:58;;;;;;;3.17;1.40;;;19.30;90.40;;;;;;5091283;28;20013;-92
2022/08/12 02:40:26;;;;;;;4.65;1.80;;;19.30;90.60;;;;;;5072845;28;20044;-92
2022/08/12 02:43:11;;;;;;;6.25;1.98;;;19.20;90.90;;;;;;5072735;28;20062;-93
2022/08/12 02:45:59;;;;;;;4.15;1.77;;;19.20;91.10;;;;;;5068526;28;20034;-93
2022/08/12 02:48:50;;;;;;;4.00;1.73;;;19.20;91.30;;;;;;5067005;28;20048;-92
2022/08/12 02:51:19;;;;;;;4.15;1.58;;;19.20;91.50;;;;;;5071438;28;20086;-92
2022/08/12 02:53:45;;;;;;;4.53;1.45;;;19.10;91.70;;;;;;5072990;28;20034;-92
2022/08/12 02:56:11;;;;;;;4.55;1.45;;;19.10;92.00;;;;;;5071727;28;20024;-93
2022/08/12 02:58:38;;;;;;;6.32;2.03;;;19.10;92.20;;;;;;5071889;28;20082;-92
2022/08/12 03:01:08;;;;;;;5.53;1.35;;;19.10;92.40;;;;;;5074921;28;20025;-93
2022/08/12 03:03:34;;;;;;;3.05;1.65;;;19.10;92.70;;;;;;5080645;28;20028;-93
2022/08/12 03:06:06;;;;;;;3.33;1.38;;;19.00;92.80;;;;;;5069624;28;20024;-92
2022/08/12 03:08:42;;;;;;;4.43;1.55;;;19.00;93.10;;;;;;5072405;28;20077;-92
2022/08/12 03:11:24;;;;;;;3.78;1.33;;;18.90;93.30;;;;;;5069353;28;20509;-91
2022/08/12 03:13:57;;;;;;;5.13;1.58;;;19.00;93.70;;;;;;5061604;28;20029;-92
2022/08/12 03:16:26;;;;;;;4.75;1.88;;;18.90;94.00;;;;;;5078581;28;20033;-92
2022/08/12 03:18:53;;;;;;;5.53;2.00;;;18.90;94.30;;;;;;5078916;28;20025;-92
2022/08/12 03:21:19;;;;;;;5.78;2.47;;;18.90;94.50;;;;;;5071465;28;20082;-92
2022/08/12 03:23:46;;;;;;;6.63;2.05;;;18.90;94.90;;;;;;5071276;28;20062;-92
2022/08/12 03:26:13;;;;;;;5.20;2.10;;;18.80;95.10;;;;;;5072916;28;20024;-92
2022/08/12 03:28:49;;;;;;;7.60;1.88;;;18.80;95.30;;;;;;5071827;28;20040;-93
2022/08/12 03:31:17;;;;;;;3.72;2.10;;;18.80;95.60;;;;;;5059920;28;20044;-92
2022/08/12 03:33:45;;;;;;;4.57;2.60;;;18.80;95.80;;;;;;5071222;28;20033;-93
2022/08/12 03:36:16;;;;;;;3.55;2.60;;;18.80;96.00;;;;;;5071630;28;20059;-93
2022/08/12 03:38:49;;;;;;;4.60;1.97;;;18.70;96.30;;;;;;5072091;28;20036;-92
2022/08/12 03:41:35;;;;;;;4.30;2.22;;;18.70;96.70;;;;;;5071953;28;20028;-93
2022/08/12 04:00:47;;;;;;;4.70;2.95;;;18.50;98.00;;;;;;5072382;28;20031;-92
2022/08/12 04:05:57;;;;;;;4.78;2.92;;;18.40;98.40;;;;;;5067733;28;20085;-91
2022/08/12 04:08:26;;;;;;;6.10;3.05;;;18.40;98.60;;;;;;5074810;28;20484;-92
2022/08/12 04:13:41;;;;;;;6.90;3.70;;;18.40;99.20;;;;;;5068047;28;20088;-91
2022/08/12 04:16:13;;;;;;;5.57;2.90;;;18.30;99.40;;;;;;5071726;28;20074;-91
2022/08/12 04:18:39;;;;;;;6.63;3.55;;;18.30;99.50;;;;;;5069022;28;20603;-91
2022/08/12 04:21:11;;;;;;;9.20;3.05;;;18.30;99.70;;;;;;5068020;28;20029;-92
2022/08/12 04:23:39;;;;;;;6.68;4.03;;;18.30;99.80;;;;;;5069164;28;20029;-89
2022/08/12 04:26:05;;;;;;;7.20;3.45;;;18.30;99.90;;;;;;5069417;28;20063;-90
2022/08/12 04:28:31;;;;;;;5.22;3.40;;;18.30;99.90;;;;;;5080867;28;20103;-91
2022/08/12 04:30:56;;;;;;;6.25;3.25;;;18.20;99.90;;;;;;5063450;28;20128;-91
2022/08/12 04:33:23;;;;;;;6.65;3.42;;;18.30;99.90;;;;;;5064069;28;20028;-91
2022/08/12 04:35:49;;;;;;;6.00;2.90;;;18.30;99.90;;;;;;5057388;28;20370;-90
2022/08/12 04:38:16;;;;;;;3.83;3.22;;;18.20;99.90;;;;;;5059466;28;20028;-91
2022/08/12 04:40:44;;;;;;;6.82;3.30;;;18.20;99.90;;;;;;5074521;28;20036;-91
2022/08/12 04:43:10;;;;;;;9.02;3.15;;;18.20;99.90;;;;;;5065044;28;20177;-91
2022/08/12 04:45:37;;;;;;;5.55;3.05;;;18.20;99.90;;;;;;5076529;28;20487;-83
2022/08/12 04:48:04;;;;;;;6.28;3.53;;;18.20;99.90;;;;;;5076421;28;20023;-85
2022/08/12 04:50:31;;;;;;;4.05;3.25;;;18.20;99.90;;;;;;5073099;28;20051;-84
2022/08/12 04:52:59;;;;;;;5.65;3.55;;;18.10;99.90;;;;;;5068670;28;20055;-83
2022/08/12 04:55:25;;;;;;;4.05;3.17;;;18.20;99.90;;;;;;5070411;28;20055;-83
2022/08/12 04:57:52;;;;;;;4.97;3.50;;;18.10;99.90;;;;;;5072894;28;20484;-84
2022/08/12 05:00:18;;;;;;;3.50;2.90;;;18.10;99.90;;;;;;5073387;28;20036;-84
2022/08/12 05:02:43;;;;;;;5.47;3.55;;;18.10;99.90;;;;;;5070237;28;20043;-84
2022/08/12 05:05:18;;;;;;;4.78;3.65;;;18.10;99.90;;;;;;5077435;28;20142;-84
2022/08/12 05:07:43;;;;;;;5.47;4.10;;;18.10;99.90;;;;;;5070078;28;20559;-84
2022/08/12 05:10:10;;;;;;;8.30;4.10;;;18.10;99.90;;;;;;5062526;28;20055;-84
2022/08/12 05:12:41;;;;;;;6.80;3.50;;;18.20;99.90;;;;;;5073972;28;20111;-84
2022/08/12 05:15:07;;;;;;;8.77;3.80;;;18.20;99.90;;;;;;5089478;28;20073;-84
2022/08/12 05:17:33;;;;;;;7.47;3.40;;;18.20;99.90;;;;;;5073770;28;20111;-83
2022/08/12 05:19:59;;;;;;;5.63;3.30;;;18.30;99.90;;;;;;5070931;28;20123;-84
2022/08/12 05:22:25;;;;;;;7.25;3.67;;;18.20;99.90;;;;;;5091615;28;20380;-84
2022/08/12 05:24:51;;;;;;;5.72;4.05;;;18.30;99.90;;;;;;5070802;28;20465;-84
2022/08/12 05:27:17;;;;;;;6.85;3.72;;;18.40;99.90;;;;;;5074311;28;20024;-84
2022/08/12 05:29:48;;;;;;;5.63;4.10;;;18.40;99.90;;;;;;5073001;28;20028;-83
2022/08/12 05:32:19;;;;;;;6.43;3.25;;;18.40;99.90;;;;;;5082088;28;20035;-84
2022/08/12 05:34:46;;;;;;;5.65;4.65;;;18.50;99.90;;;;;;5073505;28;20024;-84
2022/08/12 05:37:11;;;;;;;6.13;3.42;;;18.50;99.90;;;;;;5074163;28;20484;-84
2022/08/12 05:39:37;;;;;;;8.73;4.13;;;18.60;99.90;;;;;;5091822;28;20131;-84
2022/08/12 05:42:03;;;;;;;6.05;4.10;;;18.60;99.90;;;;;;5067944;28;20036;-84
2022/08/12 05:44:28;;;;;;;9.75;4.18;;;18.70;99.90;;;;;;5079105;28;20028;-84
2022/08/12 05:46:54;;;;;;;7.82;4.50;;;18.80;99.90;;;;;;5064965;28;20029;-84
2022/08/12 05:49:19;;;;;;;5.57;3.55;;;18.90;99.90;;;;;;5094988;28;20039;-84
2022/08/12 05:51:45;;;;;;;6.65;3.95;;;19.00;99.90;;;;;;5075119;28;20032;-84
2022/08/12 05:54:10;;;;;;;7.57;4.35;;;19.10;99.90;;;;;;5077173;28;20020;-84
2022/08/12 05:56:36;;;;;;;8.00;4.40;;;19.20;99.90;;;;;;5074599;28;20399;-84
2022/08/12 05:59:06;;;;;;;7.00;4.70;;;19.30;99.90;;;;;;5076765;28;20024;-85
2022/08/12 06:01:32;;;;;;;5.78;4.25;;;19.40;99.90;;;;;;5095428;28;20028;-83
2022/08/12 06:03:59;;;;;;;7.82;4.40;;;19.50;99.90;;;;;;5074161;28;20024;-84
2022/08/12 06:06:24;;;;;;;6.78;4.40;;;19.70;99.90;;;;;;5064930;28;20041;-84
2022/08/12 06:08:55;;;;;;;5.63;4.22;;;19.80;99.80;;;;;;5074541;28;20156;-84
2022/08/12 06:11:24;;;;;;;5.15;4.18;;;20.00;99.50;;;;;;5082285;28;20500;-84
2022/08/12 06:13:51;;;;;;;6.97;4.57;;;20.10;99.20;;;;;;5069746;28;20035;-83
2022/08/12 06:16:19;;;;;;;6.68;4.18;;;20.20;99.00;;;;;;5075864;28;20031;-83
2022/08/12 06:18:45;;;;;;;8.80;3.83;;;20.30;98.70;;;;;;5074043;28;20480;-91
2022/08/12 06:21:13;;;;;;;8.52;4.20;;;20.40;98.50;;;;;;5077687;28;20082;-91
2022/08/12 06:23:39;;;;;;;7.85;4.32;;;20.50;98.20;;;;;;5077650;28;20020;-90
2022/08/12 06:26:10;;;;;;;6.65;3.47;;;20.60;98.00;;;;;;5077665;28;20034;-90
2022/08/12 06:28:37;;;;;;;7.43;4.57;;;20.80;97.80;;;;;;5077516;28;20020;-90
2022/08/12 06:31:05;;;;;;;7.85;5.00;;;20.90;97.50;;;;;;5077262;28;20302;-91
2022/08/12 06:33:31;;;;;;;8.60;4.72;;;20.90;97.10;;;;;;5070492;28;20423;-90
2022/08/12 06:35:57;;;;;;;8.50;4.07;;;21.00;96.90;;;;;;5066772;28;20062;-90
2022/08/12 06:38:24;;;;;;;6.95;4.63;;;21.10;96.80;;;;;;5079342;28;20012;-90
2022/08/12 06:43:44;;;;;;;5.32;3.75;;;21.30;96.40;;;;;;5095478;28;20067;-91
2022/08/12 06:46:12;;;;;;;5.80;3.92;;;21.30;96.20;;;;;;5089996;28;20032;-91
2022/08/12 06:48:41;;;;;;;11.20;4.60;;;21.40;95.90;;;;;;5082418;28;20499;-92
2022/08/12 06:51:07;;;;;;;5.22;3.78;;;21.50;95.60;;;;;;5078682;28;20040;-91
2022/08/12 06:53:33;;;;;;;6.30;3.90;;;21.60;95.50;;;;;;5067142;28;20024;-92
2022/08/12 06:56:00;;;;;;;6.55;4.07;;;21.70;95.30;;;;;;5077352;28;20399;-92
2022/08/12 06:58:28;;;;;;;6.93;3.78;;;21.80;94.70;;;;;;5075284;28;20020;-91
2022/08/12 07:00:54;;;;;;;8.15;3.85;;;21.90;94.20;;;;;;5071013;28;20896;-91
2022/08/12 07:03:24;;;;;;;9.32;3.80;;;22.00;94.10;;;;;;5075878;28;20024;-91
2022/08/12 07:05:50;;;;;;;4.82;3.28;;;22.10;93.90;;;;;;5075717;28;20541;-91
2022/08/12 07:08:16;;;;;;;5.03;3.40;;;22.20;93.60;;;;;;5075573;28;20020;-91
2022/08/12 07:10:44;;;;;;;8.48;3.75;;;22.40;93.20;;;;;;5079836;28;20045;-91
2022/08/12 07:13:10;;;;;;;8.27;3.42;;;22.50;92.80;;;;;;5069309;28;20114;-91
2022/08/12 07:15:36;;;;;;;7.00;2.88;;;22.70;92.50;;;;;;5091041;28;20086;-91
2022/08/12 07:18:10;;;;;;;5.30;2.67;;;22.80;92.20;;;;;;5076345;28;20031;-91
2022/08/12 07:20:43;;;;;;;5.47;2.97;;;22.90;91.80;;;;;;5092406;28;20073;-89
2022/08/12 07:23:09;;;;;;;6.32;2.38;;;23.00;91.40;;;;;;5094611;28;20023;-89
2022/08/12 07:25:35;;;;;;;4.68;2.65;;;23.10;91.10;;;;;;5076818;28;20027;-91
2022/08/12 07:28:13;;;;;;;4.78;3.95;;;23.20;90.70;;;;;;5073394;28;20076;-91
2022/08/12 07:30:41;;;;;;;4.80;2.80;;;23.30;90.40;;;;;;5075840;28;20032;-90
2022/08/12 07:33:08;;;;;;;6.38;2.40;;;23.40;90.20;;;;;;5088585;28;20031;-91
2022/08/12 07:35:44;;;;;;;4.18;2.83;;;23.50;90.00;;;;;;5074708;28;20059;-91
2022/08/12 07:38:32;;;;;;;4.18;2.70;;;23.70;89.40;;;;;;5074506;28;20059;-90
2022/08/12 07:41:36;;;;;;;5.03;2.53;;;23.80;89.10;;;;;;5072359;28;20096;-91
2022/08/12 07:44:05;;;;;;;6.10;3.40;;;23.90;88.20;;;;;;5069304;28;20047;-90
2022/08/12 07:46:40;;;;;;;6.53;2.78;;;24.10;87.30;;;;;;5076222;28;20028;-91
2022/08/12 07:49:09;;;;;;;4.65;2.78;;;24.20;86.70;;;;;;5075501;28;20027;-91
2022/08/12 07:51:35;;;;;;;5.45;2.20;;;24.30;86.20;;;;;;5074952;28;20035;-89
2022/08/12 07:54:02;;;;;;;7.25;3.25;;;24.40;85.80;;;;;;5077043;28;20039;-90
2022/08/12 07:56:29;;;;;;;8.65;2.88;;;24.50;84.80;;;;;;5074642;28;20115;-91
2022/08/12 07:58:57;;;;;;;3.20;2.03;;;24.70;84.60;;;;;;5080162;28;20015;-92
2022/08/12 08:01:23;;;;;;;5.28;2.05;;;24.80;83.80;;;;;;5083591;28;20177;-91
2022/08/12 08:06:43;;;;;;;7.00;2.83;;;25.00;82.20;;;;;;5087206;28;20035;-91
2022/08/12 08:09:22;;;;;;;6.93;2.45;;;25.10;81.40;;;;;;5074125;28;20027;-91
2022/08/12 08:14:32;;;;;;;5.85;2.38;;;25.40;80.50;;;;;;5092385;28;20089;-91
2022/08/12 08:17:02;;;;;;;8.98;2.47;;;25.50;79.40;;;;;;5075188;28;20023;-89
2022/08/12 08:19:28;;;;;;;6.85;2.40;;;25.70;78.90;;;;;;5083014;28;20032;-91
2022/08/12 08:21:54;;;;;;;7.13;2.30;;;25.80;77.90;;;;;;5087150;28;20925;-90
2022/08/12 08:24:26;;;;;;;5.22;1.30;;;25.80;77.30;;;;;;5075381;28;20024;-91
2022/08/12 08:26:57;;;;;;;;;;;26.00;76.90;;;;;;5075538;28;20020;-91
2022/08/12 08:29:23;;;;;;;6.45;1.60;;;26.10;77.10;;;;;;5088174;28;19904;-89
2022/08/12 08:31:53;;;;;;;5.47;1.10;;;26.20;76.30;;;;;;5073398;28;20157;-91
2022/08/12 08:34:19;;;;;;;4.97;1.40;;;26.40;75.30;;;;;;5075339;28;20081;-91
2022/08/12 08:36:45;;;;;;;5.32;1.55;;;26.60;74.10;;;;;;5092130;28;20025;-91
2022/08/12 08:39:13;;;;;;;5.95;1.63;;;26.70;73.30;;;;;;5090705;28;20058;-91
2022/08/12 08:44:24;;;;;;;3.03;1.50;;;26.90;72.30;;;;;;5093647;28;20537;-91
2022/08/12 08:46:50;;;;;;;4.82;1.30;;;27.00;70.70;;;;;;5071439;28;20024;-88
2022/08/12 08:49:16;;;;;;;3.55;1.35;;;27.20;70.10;;;;;;5073913;28;20027;-91
2022/08/12 08:51:44;;;;;;;4.80;1.13;;;27.30;69.90;;;;;;5086214;28;20442;-91
2022/08/12 08:54:11;;;;;;;5.38;1.65;;;27.40;68.50;;;;;;5075479;28;20024;-91
2022/08/12 08:56:41;;;;;;;3.67;1.05;;;27.50;68.30;;;;;;5086879;28;20023;-90
2022/08/12 08:59:07;;;;;;;4.78;1.17;;;27.70;67.70;;;;;;5074912;28;20031;-90
2022/08/12 09:01:33;;;;;;;4.25;1.23;;;27.70;66.20;;;;;;5074123;28;20046;-90
2022/08/12 09:03:58;;;;;;;4.20;1.30;;;27.90;65.50;;;;;;5074939;28;20028;-90
2022/08/12 09:06:24;;;;;;;3.90;1.20;;;28.00;64.70;;;;;;5074306;28;20069;-88
2022/08/12 09:08:49;;;;;;;3.78;1.25;;;28.20;64.50;;;;;;5074428;28;20384;-89
2022/08/12 09:13:59;;;;;;;8.10;1.48;;;28.30;62.30;;;;;;5092542;28;20035;-90
2022/08/12 09:16:24;;;;;;;4.13;1.02;;;28.40;62.20;;;;;;5078521;28;20024;-90
2022/08/12 09:18:50;;;;;;;2.35;1.10;;;28.50;61.10;;;;;;5086573;28;20022;-89
2022/08/12 09:21:15;;;;;;;3.83;1.10;;;28.60;61.40;;;;;;5075995;28;20062;-91
2022/08/12 09:23:44;;;;;;;3.58;1.25;;;28.80;60.80;;;;;;5070097;28;20031;-90
2022/08/12 09:26:10;;;;;;;3.70;1.13;;;28.90;58.50;;;;;;5079172;28;20020;-90
2022/08/12 09:28:35;;;;;;;3.58;1.13;;;29.00;57.90;;;;;;5078556;28;20028;-89
2022/08/12 09:31:04;;;;;;;3.55;0.88;;;29.00;57.70;;;;;;5077984;28;20043;-90
2022/08/12 09:33:32;;;;;;;4.10;0.95;;;29.10;56.60;;;;;;5077262;28;20079;-90
2022/08/12 09:35:58;;;;;;;3.67;0.90;;;29.20;54.90;;;;;;5078131;28;20062;-90
2022/08/12 09:38:24;;;;;;;5.03;0.70;;;29.40;54.30;;;;;;5096331;28;20024;-90
2022/08/12 09:40:50;;;;;;;4.00;1.23;;;29.40;54.00;;;;;;5096261;28;20043;-90
2022/08/12 09:46:01;;;;;;;8.77;0.98;;;29.70;53.00;;;;;;5081652;28;20039;-91
2022/08/12 09:48:27;;;;;;;3.25;0.90;;;29.80;52.90;;;;;;5078594;28;20055;-89
2022/08/12 09:50:53;;;;;;;3.28;0.82;;;29.80;52.80;;;;;;5078800;28;20034;-90
2022/08/12 09:53:23;;;;;;;5.38;1.20;;;30.00;53.40;;;;;;5077632;28;20086;-92
2022/08/12 09:55:53;;;;;;;2.40;0.80;;;30.00;52.70;;;;;;5075541;28;20073;-91
2022/08/12 09:58:29;;;;;;;2.75;0.80;;;30.10;52.90;;;;;;5086055;28;20409;-89
2022/08/12 10:01:06;;;;;;;3.70;0.90;;;30.10;52.30;;;;;;5077849;28;20020;-91
2022/08/12 10:03:35;;;;;;;3.58;0.88;;;30.10;52.40;;;;;;5090315;28;20032;-90
2022/08/12 10:06:03;;;;;;;4.72;0.90;;;30.20;52.40;;;;;;5088078;28;20039;-91
2022/08/12 10:08:29;;;;;;;4.13;1.23;;;30.30;51.70;;;;;;5077181;28;20020;-90
2022/08/12 10:13:45;;;;;;;4.32;0.90;;;30.40;51.60;;;;;;5096130;28;20038;-90
2022/08/12 10:16:16;;;;;;;4.10;0.70;;;30.50;50.50;;;;;;5078043;28;20373;-89
2022/08/12 10:18:43;;;;;;;;;;;30.50;50.80;;;;;;5086163;28;20073;-89
2022/08/12 10:21:17;;;;;;;2.83;0.80;;;30.50;50.20;;;;;;5078111;28;19972;-88
2022/08/12 10:23:45;;;;;;;4.53;1.00;;;30.50;49.60;;;;;;5077523;28;20017;-88
2022/08/12 10:31:44;;;;;;;3.65;0.60;;;30.50;48.60;;;;;;5090606;28;20105;-88
2022/08/12 10:34:12;;;;;;;1.67;0.70;;;30.60;48.50;;;;;;5077341;28;20495;-89
2022/08/12 10:36:39;;;;;;;4.93;0.70;;;30.60;47.70;;;;;;5077114;28;20035;-89
2022/08/12 10:39:07;;;;;;;1.50;0.70;;;30.60;47.30;;;;;;5077142;28;20044;-88
2022/08/12 10:44:17;;;;;;;2.13;0.88;;;30.70;47.00;;;;;;5090825;28;20073;-88
2022/08/12 10:46:44;;;;;;;3.00;0.70;;;30.70;46.50;;;;;;5077095;28;20024;-88
2022/08/12 10:49:11;;;;;;;1.65;0.90;;;30.70;46.60;;;;;;5090767;28;20013;-90
2022/08/12 10:51:37;;;;;;;1.35;0.68;;;30.70;46.70;;;;;;5073016;28;20036;-89
2022/08/12 10:54:03;;;;;;;3.65;0.70;;;30.80;46.30;;;;;;5076773;28;20031;-90
2022/08/12 10:56:31;;;;;;;4.10;0.75;;;30.90;46.40;;;;;;5076511;28;20023;-91
2022/08/12 10:58:57;;;;;;;6.38;0.70;;;30.90;46.50;;;;;;5072998;28;20024;-92
2022/08/12 11:01:23;;;;;;;1.73;0.70;;;31.00;46.40;;;;;;5072664;28;20036;-89
2022/08/12 11:03:49;;;;;;;2.00;0.80;;;31.10;46.10;;;;;;5070983;28;20034;-90
2022/08/12 11:06:17;;;;;;;2.08;0.73;;;31.10;46.10;;;;;;5077331;28;20035;-91
2022/08/12 11:08:44;;;;;;;2.17;0.80;;;31.10;45.50;;;;;;5076820;28;20047;-88
2022/08/12 11:11:10;;;;;;;4.25;0.80;;;31.10;45.30;;;;;;5080492;28;20131;-87
2022/08/12 11:13:36;;;;;;;4.07;0.88;;;31.10;45.10;;;;;;5076181;28;20028;-90
2022/08/12 11:16:05;;;;;;;3.47;1.00;;;31.00;44.60;;;;;;5076083;28;20085;-89
2022/08/12 11:18:31;;;;;;;2.53;0.85;;;31.00;44.90;;;;;;5095965;28;20148;-89
2022/08/12 11:20:57;;;;;;;2.13;0.80;;;31.10;44.80;;;;;;5080649;28;20149;-88
2022/08/12 11:23:23;;;;;;;2.90;0.80;;;31.00;45.50;;;;;;5079709;28;20020;-89
2022/08/12 11:25:48;;;;;;;3.13;0.70;;;31.20;45.60;;;;;;5076115;28;20032;-89
2022/08/12 11:28:15;;;;;;;2.05;0.70;;;31.30;44.90;;;;;;5075874;28;20041;-88
2022/08/12 11:30:41;;;;;;;1.50;0.65;;;31.40;44.90;;;;;;5080620;28;20043;-89
2022/08/12 11:33:07;;;;;;;1.58;0.80;;;31.40;44.30;;;;;;5066569;28;20024;-89
2022/08/12 11:35:35;;;;;;;3.42;0.77;;;31.40;44.40;;;;;;5076860;28;20085;-89
2022/08/12 11:38:01;;;;;;;3.80;0.75;;;31.40;44.20;;;;;;5076247;28;20028;-89
2022/08/12 11:40:28;;;;;;;4.95;0.75;;;31.30;43.90;;;;;;5071306;28;20132;-88
2022/08/12 11:42:53;;;;;;;1.55;0.73;;;31.40;44.50;;;;;;5067574;28;21354;-89
2022/08/12 11:45:19;;;;;;;2.58;0.90;;;31.40;44.00;;;;;;5061628;28;20120;-89
2022/08/12 11:47:45;;;;;;;1.55;0.70;;;31.50;44.20;;;;;;5076443;28;20460;-89
2022/08/12 11:50:11;;;;;;;2.08;0.88;;;31.50;43.90;;;;;;5072963;28;20426;-89
2022/08/12 11:52:37;;;;;;;4.10;0.65;;;31.70;44.00;;;;;;5092167;28;20032;-88
2022/08/12 11:55:03;;;;;;;2.58;0.73;;;31.70;44.10;;;;;;5094205;28;20047;-90
2022/08/12 11:57:30;;;;;;;3.00;0.70;;;31.80;43.90;;;;;;5073384;28;20024;-89
2022/08/12 11:59:55;;;;;;;1.52;0.70;;;31.80;43.60;;;;;;5075864;28;20032;-88
2022/08/12 12:02:21;;;;;;;2.28;0.70;;;31.90;44.00;;;;;;5075218;28;20056;-90
2022/08/12 12:04:48;;;;;;;2.78;0.80;;;31.90;43.80;;;;;;5075917;28;20123;-90
2022/08/12 12:07:14;;;;;;;1.95;0.60;;;32.00;44.30;;;;;;5075729;28;20027;-90
2022/08/12 12:09:40;;;;;;;4.25;0.80;;;32.00;44.00;;;;;;5074898;28;20024;-90
2022/08/12 12:12:05;;;;;;;1.48;0.70;;;32.00;43.00;;;;;;5075088;28;20047;-90
2022/08/12 12:14:31;;;;;;;2.35;0.90;;;31.90;43.20;;;;;;5075143;28;20152;-88
2022/08/12 12:16:57;;;;;;;4.60;0.98;;;32.00;43.00;;;;;;5075604;28;20028;-90
2022/08/12 12:19:22;;;;;;;2.20;0.70;;;31.90;42.80;;;;;;5076146;28;20024;-90
2022/08/12 12:21:48;;;;;;;5.10;0.90;;;31.90;42.90;;;;;;5074452;28;20396;-90
2022/08/12 12:24:13;;;;;;;1.73;0.70;;;31.90;43.20;;;;;;5075753;28;20024;-87
2022/08/12 12:26:39;;;;;;;2.00;0.75;;;31.90;42.70;;;;;;5064038;28;20496;-89
2022/08/12 12:29:05;;;;;;;3.10;0.80;;;31.80;43.10;;;;;;5069162;28;20510;-87
2022/08/12 12:31:32;;;;;;;3.17;0.77;;;31.70;42.60;;;;;;5092424;28;20130;-87
2022/08/12 12:33:57;;;;;;;2.85;0.85;;;31.70;42.80;;;;;;5091257;28;20576;-88
2022/08/12 12:36:23;;;;;;;4.00;1.25;;;31.70;42.90;;;;;;5092315;28;20063;-89
2022/08/12 12:38:49;;;;;;;2.65;0.80;;;31.70;43.20;;;;;;5071703;28;20052;-88
2022/08/12 12:41:15;;;;;;;2.05;0.80;;;31.70;43.60;;;;;;5064581;28;20021;-89
2022/08/12 12:43:40;;;;;;;3.58;0.75;;;31.80;43.60;;;;;;5061992;28;20024;-90
2022/08/12 12:46:06;;;;;;;2.35;0.98;;;31.90;43.50;;;;;;5070511;28;20025;-88
2022/08/12 12:48:32;;;;;;;3.83;0.80;;;31.90;43.00;;;;;;5072148;28;20017;-89
2022/08/12 12:51:15;;;;;;;3.65;0.70;;;31.90;43.40;;;;;;5070810;28;20044;-88
2022/08/12 12:53:48;;;;;;;4.10;0.70;;;32.00;43.40;;;;;;5064265;28;20468;-89
2022/08/12 12:56:23;;;;;;;2.28;1.20;;;32.20;44.10;;;;;;5069404;28;20049;-88
2022/08/12 12:58:51;;;;;;;2.42;0.82;;;32.40;43.30;;;;;;5068233;28;20027;-87
2022/08/12 13:01:24;;;;;;;1.60;0.68;;;32.40;42.90;;;;;;5071929;28;20024;-88
2022/08/12 13:03:55;;;;;;;1.83;0.70;;;32.20;42.80;;;;;;5071339;28;20051;-86
2022/08/12 13:06:28;;;;;;;4.88;0.75;;;32.20;42.50;;;;;;5068707;28;20033;-88
2022/08/12 13:08:55;;;;;;;2.50;0.98;;;32.10;43.00;;;;;;5071308;28;20525;-87
2022/08/12 13:11:21;;;;;;;3.08;0.70;;;32.20;43.30;;;;;;5067789;28;20056;-89
2022/08/12 13:13:52;;;;;;;1.77;0.70;;;32.20;43.10;;;;;;5067264;28;20376;-88
2022/08/12 13:16:21;;;;;;;2.37;0.80;;;32.40;43.00;;;;;;5082356;28;20024;-88
2022/08/12 13:18:48;;;;;;;2.47;0.80;;;32.50;43.00;;;;;;5051958;28;20025;-89
2022/08/12 13:21:17;;;;;;;2.67;0.70;;;32.50;42.40;;;;;;5072597;28;20392;-90
2022/08/12 13:23:47;;;;;;;3.60;1.02;;;32.50;42.30;;;;;;5072512;28;20096;-88
2022/08/12 13:26:16;;;;;;;1.70;0.68;;;32.40;42.40;;;;;;5071233;28;20020;-88
2022/08/12 13:28:44;;;;;;;1.30;0.60;;;32.40;42.90;;;;;;5071476;28;20039;-88
2022/08/12 13:31:11;;;;;;;5.22;1.15;;;32.40;42.90;;;;;;5070398;28;20124;-89
2022/08/12 13:33:37;;;;;;;1.92;0.70;;;32.60;42.60;;;;;;5065787;28;20031;-88
2022/08/12 13:36:04;;;;;;;5.78;0.80;;;32.70;41.80;;;;;;5064349;28;20025;-87
2022/08/12 13:38:38;;;;;;;2.88;0.90;;;32.70;41.90;;;;;;5071450;28;20037;-89
2022/08/12 13:41:04;;;;;;;1.40;0.70;;;32.80;41.90;;;;;;5072076;28;20024;-88
2022/08/12 13:43:31;;;;;;;1.70;0.70;;;32.90;41.80;;;;;;5074644;28;20392;-88
2022/08/12 13:45:58;;;;;;;1.42;0.60;;;33.10;41.20;;;;;;5073913;28;20317;-88
2022/08/12 13:48:23;;;;;;;1.27;0.70;;;33.10;41.30;;;;;;5103307;28;20028;-89
2022/08/12 13:50:49;;;;;;;1.77;0.70;;;33.20;41.30;;;;;;5074147;28;20122;-88
2022/08/12 13:53:17;;;;;;;4.38;0.80;;;33.30;41.00;;;;;;5074182;28;20468;-89
2022/08/12 13:55:44;;;;;;;3.42;0.77;;;33.30;40.70;;;;;;5073880;28;20096;-91
2022/08/12 13:58:12;;;;;;;1.77;0.70;;;33.20;40.50;;;;;;5054501;28;20043;-90
2022/08/12 14:00:38;;;;;;;2.72;0.60;;;33.10;40.60;;;;;;5063070;28;20085;-89
2022/08/12 14:03:04;;;;;;;3.67;0.70;;;33.00;40.70;;;;;;5076554;28;20428;-89
2022/08/12 14:05:32;;;;;;;1.58;0.60;;;33.00;40.70;;;;;;5095113;28;20119;-89
2022/08/12 14:08:02;;;;;;;3.00;0.70;;;33.00;40.60;;;;;;5076927;28;20494;-89
2022/08/12 14:10:37;;;;;;;3.88;0.80;;;33.00;40.40;;;;;;5076149;28;20567;-92
2022/08/12 14:13:10;;;;;;;1.63;0.65;;;33.00;40.40;;;;;;5078234;28;20028;-90
2022/08/12 14:15:41;;;;;;;1.58;0.70;;;33.00;40.70;;;;;;5103345;28;20490;-89
2022/08/12 14:18:43;;;;;;;1.63;0.75;;;33.00;40.70;;;;;;5098767;28;20024;-90
2022/08/12 14:21:13;;;;;;;3.10;0.88;;;33.10;40.90;;;;;;5107248;28;20032;-91
2022/08/12 14:23:41;;;;;;;1.50;0.55;;;33.20;40.20;;;;;;5077274;28;20106;-90
2022/08/12 14:26:08;;;;;;;3.17;0.80;;;33.20;40.40;;;;;;5077155;28;20081;-89
2022/08/12 14:28:35;;;;;;;1.83;0.70;;;33.20;40.10;;;;;;5076821;28;20042;-90
2022/08/12 14:31:07;;;;;;;3.88;0.70;;;33.20;39.90;;;;;;5077917;28;20044;-89
2022/08/12 14:33:36;;;;;;;2.33;0.75;;;33.20;40.00;;;;;;5093122;28;20020;-90
2022/08/12 14:36:05;;;;;;;1.80;0.70;;;33.20;40.20;;;;;;5077108;28;20512;-90
2022/08/12 14:38:36;;;;;;;2.55;0.57;;;33.20;39.80;;;;;;5076859;28;20040;-91
2022/08/12 14:41:03;;;;;;;2.58;0.70;;;33.30;40.10;;;;;;5077749;28;20024;-89
2022/08/12 14:43:32;;;;;;;3.33;0.68;;;33.40;40.10;;;;;;5077813;28;20051;-90
2022/08/12 14:46:00;;;;;;;2.28;0.68;;;33.60;39.80;;;;;;5076703;28;20119;-90